首页
METAR-TAF:

METAR-TAF

机场 :

Chetwynd, 不列颠哥伦比亚, 加拿大

纬度: 55-42N, 经度: 121-38W, 海拔: 609米

当前天气观测

该预报发布于1小时和55分钟前的01:00 UTC
风速10节,风向西南,有时为15节阵风
温度 28°C
湿度 30%
气压 1012 hPa
能見度: 56.3公里
少量云层高于5000英尺
散云层高于10000英尺
多云层高于18000英尺
阴天层高于21000英尺

METAR: CYCQ 150100Z 22010G15KT 35SM FEW050 SCT100 BKN180 OVC210 28/09 A2988 RMK CU2AC2AS3CI1 ROTOR CLD SE+W SUN DIMLY VISBL LAST STFD OBS/NXT 151300Z SLP127 DENSITY ALT 4000FT

时间: 19:55 (02:55 UTC)


TAF: 丢失

超过4000个机场的气象观测和天气预报(METAR&TAF报告)。

可查询的气象台以黄色和红色小点在地图上表示。

将鼠标移到小点上方,可查看气象台名称。

然后点击查看天气观测和预报。

如需切换地图:点击带黑十字的绿色按钮放大地图;点击带横线的绿色按钮缩小地图;或者点击绿色箭头查看邻近地区的地图。


METAR-TAF: